createdAt,value
2018-08-03T00:00:46.097Z,1008.37
2018-08-03T00:01:46.119Z,1008.39
2018-08-03T00:02:46.143Z,1008.39
2018-08-03T00:03:46.164Z,1008.39
2018-08-03T00:04:46.186Z,1008.38
2018-08-03T00:05:46.218Z,1008.40
2018-08-03T00:06:46.228Z,1008.42
2018-08-03T00:07:46.253Z,1008.40
2018-08-03T00:08:46.279Z,1008.40
2018-08-03T00:09:46.298Z,1008.39
2018-08-03T00:10:46.322Z,1008.40
2018-08-03T00:11:46.345Z,1008.41
2018-08-03T00:12:46.369Z,1008.41
2018-08-03T00:13:46.385Z,1008.38
2018-08-03T00:14:46.410Z,1008.35
2018-08-03T00:15:46.436Z,1008.36
2018-08-03T00:16:46.457Z,1008.34
2018-08-03T00:17:46.505Z,1008.32
2018-08-03T00:18:46.501Z,1008.32
2018-08-03T00:19:46.522Z,1008.30
2018-08-03T00:20:46.542Z,1008.31
2018-08-03T00:21:46.567Z,1008.36
2018-08-03T00:22:46.587Z,1008.31
2018-08-03T00:23:46.609Z,1008.33
2018-08-03T00:24:46.628Z,1008.33
2018-08-03T00:25:46.678Z,1008.34
2018-08-03T00:26:46.677Z,1008.31
2018-08-03T00:27:46.702Z,1008.29
2018-08-03T00:28:46.726Z,1008.31
2018-08-03T00:29:46.744Z,1008.35
2018-08-03T00:30:46.764Z,1008.34
2018-08-03T00:31:46.799Z,1008.34
2018-08-03T00:32:46.808Z,1008.34
2018-08-03T00:33:46.830Z,1008.37
2018-08-03T00:34:46.860Z,1008.35
2018-08-03T00:35:46.874Z,1008.34
2018-08-03T00:36:46.899Z,1008.37
2018-08-03T00:37:46.922Z,1008.37
2018-08-03T00:38:46.940Z,1008.35
2018-08-03T00:39:46.963Z,1008.35
2018-08-03T00:40:46.987Z,1008.33
2018-08-03T00:41:47.008Z,1008.34
2018-08-03T00:42:47.032Z,1008.33
2018-08-03T00:43:47.052Z,1008.36
2018-08-03T00:44:47.079Z,1008.35
2018-08-03T00:45:47.097Z,1008.31
2018-08-03T00:46:47.116Z,1008.32
2018-08-03T00:47:47.140Z,1008.32
2018-08-03T00:48:47.162Z,1008.31
2018-08-03T00:49:47.184Z,1008.31
2018-08-03T00:50:47.210Z,1008.27
2018-08-03T00:51:47.234Z,1008.27
2018-08-03T00:52:47.296Z,1008.26
2018-08-03T00:53:47.289Z,1008.28
2018-08-03T00:54:47.299Z,1008.30
2018-08-03T00:55:47.318Z,1008.29
2018-08-03T00:56:47.339Z,1008.28
2018-08-03T00:57:47.361Z,1008.29
2018-08-03T00:58:47.384Z,1008.32
2018-08-03T00:59:47.408Z,1008.33
2018-08-03T01:00:47.430Z,1008.36
2018-08-03T01:01:47.449Z,1008.33
2018-08-03T01:02:47.472Z,1008.35
2018-08-03T01:03:47.490Z,1008.33
2018-08-03T01:04:47.519Z,1008.33
2018-08-03T01:05:47.538Z,1008.34
2018-08-03T01:06:47.563Z,1008.31
2018-08-03T01:07:47.614Z,1008.29
2018-08-03T01:08:47.605Z,1008.31
2018-08-03T01:09:47.625Z,1008.30
2018-08-03T01:10:47.651Z,1008.33
2018-08-03T01:11:47.676Z,1008.32
2018-08-03T01:12:47.699Z,1008.33
2018-08-03T01:13:47.712Z,1008.33
2018-08-03T01:14:47.736Z,1008.35
2018-08-03T01:15:47.757Z,1008.35
2018-08-03T01:16:47.782Z,1008.33
2018-08-03T01:17:47.830Z,1008.34
2018-08-03T01:18:47.827Z,1008.38
2018-08-03T01:19:47.847Z,1008.36
2018-08-03T01:20:47.867Z,1008.38
2018-08-03T01:21:47.889Z,1008.36
2018-08-03T01:22:47.918Z,1008.38
2018-08-03T01:23:47.931Z,1008.35
2018-08-03T01:24:47.954Z,1008.38
2018-08-03T01:25:47.974Z,1008.35
2018-08-03T01:26:48.001Z,1008.35
2018-08-03T01:27:48.063Z,1008.37
2018-08-03T01:28:48.058Z,1008.33
2018-08-03T01:29:48.064Z,1008.35
2018-08-03T01:30:48.096Z,1008.28
2018-08-03T01:31:48.111Z,1008.30
2018-08-03T01:32:48.129Z,1008.27
2018-08-03T01:33:48.155Z,1008.30
2018-08-03T01:34:48.173Z,1008.28
2018-08-03T01:35:48.195Z,1008.30
2018-08-03T01:36:48.228Z,1008.28
2018-08-03T01:37:48.313Z,1008.27
2018-08-03T01:38:48.273Z,1008.28
2018-08-03T01:39:48.287Z,1008.29
2018-08-03T01:40:48.310Z,1008.30
2018-08-03T01:41:48.326Z,1008.28
2018-08-03T01:42:48.379Z,1008.30
2018-08-03T01:43:48.372Z,1008.30
2018-08-03T01:44:48.397Z,1008.30
2018-08-03T01:45:48.414Z,1008.33
2018-08-03T01:46:48.436Z,1008.29
2018-08-03T01:47:48.464Z,1008.29
2018-08-03T01:48:48.478Z,1008.32
2018-08-03T01:49:48.501Z,1008.29
2018-08-03T01:50:48.524Z,1008.33
2018-08-03T01:51:48.546Z,1008.28
2018-08-03T01:52:48.568Z,1008.28
2018-08-03T01:53:48.594Z,1008.25
2018-08-03T01:54:48.610Z,1008.27
2018-08-03T01:55:48.647Z,1008.27
2018-08-03T01:56:48.654Z,1008.28
2018-08-03T01:57:48.674Z,1008.25
2018-08-03T01:58:48.697Z,1008.28
2018-08-03T01:59:48.719Z,1008.27
2018-08-03T02:00:48.785Z,1008.23
2018-08-03T02:01:48.761Z,1008.26
2018-08-03T02:02:48.784Z,1008.28
2018-08-03T02:03:48.812Z,1008.23
2018-08-03T02:04:48.833Z,1008.24
2018-08-03T02:05:48.866Z,1008.27
2018-08-03T02:06:48.872Z,1008.25
2018-08-03T02:07:48.893Z,1008.28
2018-08-03T02:08:48.913Z,1008.28
2018-08-03T02:09:48.957Z,1008.27
2018-08-03T02:10:48.958Z,1008.30
2018-08-03T02:11:48.980Z,1008.28
2018-08-03T02:12:49.001Z,1008.35
2018-08-03T02:13:49.021Z,1008.33
2018-08-03T02:14:49.043Z,1008.33
2018-08-03T02:15:49.085Z,1008.31
2018-08-03T02:16:49.089Z,1008.32
2018-08-03T02:17:49.112Z,1008.32
2018-08-03T02:18:49.131Z,1008.29
2018-08-03T02:19:49.152Z,1008.32
2018-08-03T02:20:49.190Z,1008.33
2018-08-03T02:21:49.200Z,1008.32
2018-08-03T02:22:49.217Z,1008.29
2018-08-03T02:23:49.240Z,1008.30
2018-08-03T02:24:49.263Z,1008.28
2018-08-03T02:25:49.285Z,1008.31
2018-08-03T02:26:49.310Z,1008.31
2018-08-03T02:27:49.326Z,1008.32
2018-08-03T02:28:49.348Z,1008.33
2018-08-03T02:29:49.370Z,1008.32
2018-08-03T02:30:49.399Z,1008.32
2018-08-03T02:31:49.463Z,1008.32
2018-08-03T02:32:49.433Z,1008.31
2018-08-03T02:33:49.458Z,1008.30
2018-08-03T02:34:49.481Z,1008.28
2018-08-03T02:35:49.521Z,1008.28
2018-08-03T02:36:49.523Z,1008.25
2018-08-03T02:37:49.559Z,1008.28
2018-08-03T02:38:49.572Z,1008.27
2018-08-03T02:39:49.585Z,1008.26
2018-08-03T02:40:49.621Z,1008.30
2018-08-03T02:41:49.694Z,1008.31
2018-08-03T02:42:49.652Z,1008.33
2018-08-03T02:43:49.673Z,1008.32
2018-08-03T02:44:49.696Z,1008.31
2018-08-03T02:45:49.715Z,1008.33
2018-08-03T02:46:49.736Z,1008.38
2018-08-03T02:47:49.763Z,1008.34
2018-08-03T02:48:49.779Z,1008.31
2018-08-03T02:49:49.820Z,1008.32
2018-08-03T02:50:49.826Z,1008.32
2018-08-03T02:51:49.854Z,1008.34
2018-08-03T02:52:49.866Z,1008.33
2018-08-03T02:53:49.892Z,1008.32
2018-08-03T02:54:49.910Z,1008.31
2018-08-03T02:55:49.933Z,1008.30
2018-08-03T02:56:49.959Z,1008.30
2018-08-03T02:57:49.975Z,1008.29
2018-08-03T02:58:50.000Z,1008.31
2018-08-03T02:59:50.019Z,1008.32
2018-08-03T03:00:50.068Z,1008.33
2018-08-03T03:01:50.076Z,1008.29
2018-08-03T03:02:50.084Z,1008.33
2018-08-03T03:03:50.107Z,1008.33
2018-08-03T03:04:50.127Z,1008.36
2018-08-03T03:05:50.148Z,1008.34
2018-08-03T03:06:50.169Z,1008.35
2018-08-03T03:07:50.199Z,1008.38
2018-08-03T03:08:50.213Z,1008.32
2018-08-03T03:09:50.236Z,1008.35
2018-08-03T03:10:50.259Z,1008.33
2018-08-03T03:11:50.280Z,1008.35
2018-08-03T03:12:50.299Z,1008.33
2018-08-03T03:13:50.324Z,1008.36
2018-08-03T03:14:50.346Z,1008.33
2018-08-03T03:15:50.365Z,1008.36
2018-08-03T03:16:50.388Z,1008.37
2018-08-03T03:17:50.409Z,1008.40
2018-08-03T03:18:50.463Z,1008.41
2018-08-03T03:19:50.472Z,1008.41
2018-08-03T03:20:50.472Z,1008.43
2018-08-03T03:21:50.493Z,1008.42
2018-08-03T03:22:50.515Z,1008.42
2018-08-03T03:23:50.537Z,1008.43
2018-08-03T03:24:50.556Z,1008.43
2018-08-03T03:25:50.581Z,1008.45
2018-08-03T03:26:50.599Z,1008.48
2018-08-03T03:27:50.622Z,1008.46
2018-08-03T03:28:50.643Z,1008.45
2018-08-03T03:29:50.664Z,1008.43
2018-08-03T03:30:50.692Z,1008.46
2018-08-03T03:31:50.730Z,1008.44
2018-08-03T03:32:50.744Z,1008.43
2018-08-03T03:33:50.753Z,1008.48
2018-08-03T03:34:50.776Z,1008.46
2018-08-03T03:35:50.799Z,1008.46
2018-08-03T03:36:50.815Z,1008.44
2018-08-03T03:37:50.840Z,1008.50
2018-08-03T03:38:50.859Z,1008.45
2018-08-03T03:39:50.879Z,1008.45
2018-08-03T03:40:50.901Z,1008.43
2018-08-03T03:41:50.922Z,1008.49
2018-08-03T03:42:50.944Z,1008.47
2018-08-03T03:43:50.969Z,1008.48
2018-08-03T03:44:50.993Z,1008.48
2018-08-03T03:45:51.010Z,1008.51
2018-08-03T03:46:51.031Z,1008.49
2018-08-03T03:47:51.053Z,1008.49
2018-08-03T03:48:51.074Z,1008.50
2018-08-03T03:49:51.095Z,1008.53
2018-08-03T03:50:51.121Z,1008.52
2018-08-03T03:51:51.138Z,1008.51
2018-08-03T03:52:51.211Z,1008.49
2018-08-03T03:53:51.180Z,1008.53
2018-08-03T03:54:51.202Z,1008.55
2018-08-03T03:55:51.224Z,1008.52
2018-08-03T03:56:51.249Z,1008.56
2018-08-03T03:57:51.272Z,1008.57
2018-08-03T03:58:51.289Z,1008.58
2018-08-03T03:59:51.309Z,1008.54
2018-08-03T04:00:51.337Z,1008.56
2018-08-03T04:01:51.352Z,1008.56
2018-08-03T04:02:51.377Z,1008.57
2018-08-03T04:03:51.441Z,1008.59
2018-08-03T04:04:51.424Z,1008.59
2018-08-03T04:05:51.443Z,1008.61
2018-08-03T04:06:51.459Z,1008.63
2018-08-03T04:07:51.481Z,1008.64
2018-08-03T04:08:51.498Z,1008.60
2018-08-03T04:09:51.523Z,1008.61
2018-08-03T04:10:51.562Z,1008.64
2018-08-03T04:11:51.569Z,1008.61
2018-08-03T04:12:51.591Z,1008.64
2018-08-03T04:13:51.607Z,1008.65
2018-08-03T04:14:51.628Z,1008.61
2018-08-03T04:15:51.650Z,1008.62
2018-08-03T04:16:51.672Z,1008.63
2018-08-03T04:17:51.701Z,1008.64
2018-08-03T04:18:51.751Z,1008.65
2018-08-03T04:19:51.737Z,1008.66
2018-08-03T04:20:51.762Z,1008.62
2018-08-03T04:21:51.797Z,1008.62
2018-08-03T04:22:51.808Z,1008.64
2018-08-03T04:23:51.824Z,1008.66
2018-08-03T04:24:51.860Z,1008.65
2018-08-03T04:25:51.868Z,1008.67
2018-08-03T04:26:51.890Z,1008.67
2018-08-03T04:27:51.910Z,1008.65
2018-08-03T04:28:51.931Z,1008.72
2018-08-03T04:29:51.951Z,1008.66
2018-08-03T04:30:51.978Z,1008.70
2018-08-03T04:31:51.996Z,1008.69
2018-08-03T04:32:52.020Z,1008.67
2018-08-03T04:33:52.037Z,1008.66
2018-08-03T04:34:52.059Z,1008.64
2018-08-03T04:35:52.085Z,1008.68
2018-08-03T04:36:52.102Z,1008.66
2018-08-03T04:37:52.127Z,1008.70
2018-08-03T04:38:52.173Z,1008.72
2018-08-03T04:39:52.170Z,1008.72
2018-08-03T04:40:52.190Z,1008.68
2018-08-03T04:41:52.210Z,1008.74
2018-08-03T04:42:52.236Z,1008.76
2018-08-03T04:43:52.255Z,1008.78
2018-08-03T04:44:52.279Z,1008.77
2018-08-03T04:45:52.300Z,1008.77
2018-08-03T04:46:52.329Z,1008.77
2018-08-03T04:47:52.342Z,1008.74
2018-08-03T04:48:52.364Z,1008.77
2018-08-03T04:49:52.386Z,1008.79
2018-08-03T04:50:52.407Z,1008.77
2018-08-03T04:51:52.436Z,1008.79
2018-08-03T04:52:52.448Z,1008.77
2018-08-03T04:53:52.472Z,1008.78
2018-08-03T04:54:52.494Z,1008.81
2018-08-03T04:55:52.517Z,1008.79
2018-08-03T04:56:52.550Z,1008.79
2018-08-03T04:57:52.678Z,1008.80
2018-08-03T04:58:52.583Z,1008.86
2018-08-03T04:59:52.606Z,1008.87
2018-08-03T05:00:52.680Z,1009.11
2018-08-03T05:01:52.646Z,1009.36
2018-08-03T05:02:52.687Z,1009.37
2018-08-03T05:03:52.707Z,1009.43
2018-08-03T05:04:52.752Z,1009.44
2018-08-03T05:05:52.743Z,1009.49
2018-08-03T05:06:52.761Z,1009.53
2018-08-03T05:07:52.784Z,1009.53
2018-08-03T05:08:52.809Z,1009.56
2018-08-03T05:09:52.835Z,1009.60
2018-08-03T05:10:52.861Z,1009.65
2018-08-03T05:11:52.883Z,1009.62
2018-08-03T05:12:52.908Z,1009.66
2018-08-03T05:13:52.932Z,1009.65
2018-08-03T05:14:52.960Z,1009.65
2018-08-03T05:15:52.981Z,1009.65
2018-08-03T05:16:53.004Z,1009.64
2018-08-03T05:17:53.033Z,1009.68
2018-08-03T05:18:53.059Z,1009.66
2018-08-03T05:19:53.083Z,1009.71
2018-08-03T05:20:53.111Z,1009.68
2018-08-03T05:21:53.133Z,1009.71
2018-08-03T05:22:53.159Z,1009.72
2018-08-03T05:23:53.199Z,1009.78
2018-08-03T05:24:53.214Z,1009.83
2018-08-03T05:25:53.240Z,1009.82
2018-08-03T05:26:53.266Z,1009.86
2018-08-03T05:27:53.297Z,1009.85
2018-08-03T05:28:53.326Z,1009.86
2018-08-03T05:29:53.351Z,1009.86
2018-08-03T05:30:53.376Z,1009.89
2018-08-03T05:31:53.405Z,1009.93
2018-08-03T05:32:53.432Z,1009.92
2018-08-03T05:33:53.457Z,1009.97
2018-08-03T05:34:53.490Z,1010.03
2018-08-03T05:35:53.526Z,1010.02
2018-08-03T05:36:53.547Z,1010.06
2018-08-03T05:37:53.571Z,1010.12
2018-08-03T05:38:53.598Z,1010.13
2018-08-03T05:39:53.629Z,1010.09
2018-08-03T05:40:53.655Z,1010.12
2018-08-03T05:41:53.684Z,1010.11
2018-08-03T05:42:53.725Z,1010.12
2018-08-03T05:43:53.750Z,1010.13
2018-08-03T05:44:53.767Z,1010.13
2018-08-03T05:45:53.796Z,1010.09
2018-08-03T05:46:53.828Z,1010.11
2018-08-03T05:47:53.857Z,1010.16
2018-08-03T05:48:53.889Z,1010.24
2018-08-03T05:49:53.928Z,1010.24
2018-08-03T05:50:53.944Z,1010.28
2018-08-03T05:51:53.973Z,1010.31
2018-08-03T05:52:54.046Z,1010.31
2018-08-03T05:53:54.029Z,1010.33
2018-08-03T05:54:54.059Z,1010.34
2018-08-03T05:55:54.090Z,1010.40
2018-08-03T05:56:54.118Z,1010.42
2018-08-03T05:57:54.184Z,1010.44
2018-08-03T05:58:54.222Z,1010.42
2018-08-03T05:59:54.216Z,1010.46
2018-08-03T06:00:54.238Z,1010.43
2018-08-03T06:01:54.268Z,1010.48
2018-08-03T06:02:54.298Z,1010.53
2018-08-03T06:03:54.333Z,1010.56
2018-08-03T06:04:54.359Z,1010.57
2018-08-03T06:05:54.397Z,1010.64
2018-08-03T06:06:54.415Z,1010.70
2018-08-03T06:07:54.472Z,1010.72
2018-08-03T06:08:54.481Z,1010.84
2018-08-03T06:09:54.508Z,1010.95
2018-08-03T06:10:54.562Z,1011.07
2018-08-03T06:11:54.570Z,1011.12
2018-08-03T06:12:54.598Z,1011.14
2018-08-03T06:13:54.631Z,1011.28
2018-08-03T06:14:54.711Z,1011.22
2018-08-03T06:15:54.692Z,1011.35
2018-08-03T06:16:54.722Z,1011.65
2018-08-03T06:17:54.754Z,1011.89
2018-08-03T06:18:54.782Z,1012.15
2018-08-03T06:19:54.815Z,1012.25
2018-08-03T06:20:54.844Z,1012.40
2018-08-03T06:21:54.879Z,1012.95
2018-08-03T06:22:54.907Z,1013.30
2018-08-03T06:23:54.939Z,1013.12
2018-08-03T06:24:54.970Z,1013.44
2018-08-03T06:25:55.001Z,1013.58
2018-08-03T06:26:55.038Z,1013.60
2018-08-03T06:27:55.067Z,1014.06
2018-08-03T06:28:55.094Z,1014.38
2018-08-03T06:29:55.123Z,1014.71
2018-08-03T06:30:55.157Z,1015.05
2018-08-03T06:31:55.192Z,1015.31
2018-08-03T06:32:55.215Z,1015.40
2018-08-03T06:33:55.252Z,1015.55
2018-08-03T06:34:55.280Z,1015.96
2018-08-03T06:35:55.315Z,1016.70
2018-08-03T06:36:55.344Z,1016.88
2018-08-03T06:37:55.378Z,1016.65
2018-08-03T06:38:55.406Z,1017.03
2018-08-03T06:39:55.437Z,1017.59
2018-08-03T06:40:55.467Z,1018.12
2018-08-03T06:41:55.505Z,1018.52
2018-08-03T06:42:55.536Z,1018.88
2018-08-03T06:43:55.566Z,1019.27
2018-08-03T06:44:55.593Z,1019.61
2018-08-03T06:45:55.763Z,1019.53
2018-08-03T06:46:55.670Z,1019.23
2018-08-03T06:47:55.690Z,1019.49
2018-08-03T06:48:55.723Z,1019.62
2018-08-03T06:49:55.752Z,1019.56
2018-08-03T06:50:55.788Z,1019.26
2018-08-03T06:51:55.813Z,1019.16
2018-08-03T06:52:55.848Z,1020.02
2018-08-03T06:53:55.875Z,1019.30
2018-08-03T06:54:55.922Z,1018.79
2018-08-03T06:55:55.944Z,1020.46
2018-08-03T06:56:55.972Z,1023.34
2018-08-03T06:57:56.003Z,1023.02
2018-08-03T06:58:56.046Z,1021.59
2018-08-03T06:59:56.067Z,1021.64
2018-08-03T07:00:56.107Z,1022.47
2018-08-03T07:01:56.129Z,1022.70
2018-08-03T07:02:56.186Z,1022.09
2018-08-03T07:03:56.194Z,1022.55
2018-08-03T07:04:56.269Z,1022.83
2018-08-03T07:05:56.260Z,1022.62
2018-08-03T07:06:56.292Z,1023.04
2018-08-03T07:07:56.322Z,1023.91
2018-08-03T07:08:56.356Z,1023.92
2018-08-03T07:09:56.386Z,1024.02
2018-08-03T07:10:56.421Z,1024.23
2018-08-03T07:11:56.453Z,1024.23
2018-08-03T07:12:56.498Z,1024.02
2018-08-03T07:13:56.515Z,1023.56
2018-08-03T07:14:56.594Z,1023.13
2018-08-03T07:15:56.580Z,1023.79
2018-08-03T07:16:56.611Z,1024.75
2018-08-03T07:17:56.655Z,1025.56
2018-08-03T07:18:56.683Z,1025.95
2018-08-03T07:19:56.718Z,1025.41
2018-08-03T07:20:56.752Z,1025.44
2018-08-03T07:21:56.772Z,1026.24
2018-08-03T07:22:56.822Z,1025.90
2018-08-03T07:23:56.838Z,1025.60
2018-08-03T07:24:56.869Z,1025.51
2018-08-03T07:25:56.915Z,1026.22
2018-08-03T07:26:56.941Z,1025.93
2018-08-03T07:27:56.970Z,1025.58
2018-08-03T07:28:57.001Z,1026.08
2018-08-03T07:29:57.032Z,1027.07
2018-08-03T07:30:57.078Z,1028.10
2018-08-03T07:31:57.097Z,1028.19
2018-08-03T07:32:57.130Z,1028.05
2018-08-03T07:33:57.165Z,1028.59
2018-08-03T07:34:57.195Z,1028.62
2018-08-03T07:35:57.231Z,1028.86
2018-08-03T07:36:57.322Z,1029.44
2018-08-03T07:37:57.292Z,1029.89
2018-08-03T07:38:57.362Z,1029.90
2018-08-03T07:39:57.373Z,1030.24
2018-08-03T07:40:57.392Z,1029.71
2018-08-03T07:41:57.422Z,1030.90
2018-08-03T07:42:57.535Z,1032.97
2018-08-03T07:43:57.489Z,1033.23
2018-08-03T07:44:57.539Z,1032.97
2018-08-03T07:45:57.557Z,1034.07
2018-08-03T07:46:57.589Z,1035.21
2018-08-03T07:47:57.622Z,1033.80
2018-08-03T07:48:57.651Z,1032.04
2018-08-03T07:49:57.689Z,1031.20
2018-08-03T07:50:57.732Z,1034.80
2018-08-03T07:51:57.747Z,1037.56
2018-08-03T07:52:57.783Z,1035.67
2018-08-03T07:53:57.825Z,1034.88
2018-08-03T07:54:57.848Z,1036.04
2018-08-03T07:55:57.883Z,1034.27
2018-08-03T07:56:57.912Z,1032.81
2018-08-03T07:57:57.946Z,1033.16
2018-08-03T07:58:57.981Z,1035.90
2018-08-03T07:59:58.018Z,1036.75
2018-08-03T08:00:58.047Z,1036.20
2018-08-03T08:01:58.077Z,1035.73
2018-08-03T08:02:58.110Z,1038.06
2018-08-03T08:03:59.009Z,1040.64
2018-08-03T08:04:58.188Z,1039.88
2018-08-03T08:05:58.208Z,1036.02
2018-08-03T08:06:58.240Z,1036.76
2018-08-03T08:07:58.275Z,1039.13
2018-08-03T08:08:58.307Z,1037.55
2018-08-03T08:09:58.341Z,1033.46
2018-08-03T08:10:58.383Z,1033.16
2018-08-03T08:11:58.406Z,1032.82
2018-08-03T08:12:58.439Z,1033.09
2018-08-03T08:13:58.492Z,1035.45
2018-08-03T08:14:58.518Z,1035.11
2018-08-03T08:15:58.561Z,1035.79
2018-08-03T08:16:58.619Z,1036.61
2018-08-03T08:17:58.604Z,1036.52
2018-08-03T08:18:58.637Z,1039.13
2018-08-03T08:19:58.669Z,1035.32
2018-08-03T08:20:58.702Z,1030.52
2018-08-03T08:21:58.734Z,1035.53
2018-08-03T08:22:58.769Z,1036.94
2018-08-03T08:23:58.802Z,1039.10
2018-08-03T08:24:58.845Z,1037.65
2018-08-03T08:25:58.872Z,1037.94
2018-08-03T08:26:58.898Z,1037.91
2018-08-03T08:27:58.931Z,1037.14
2018-08-03T08:28:58.964Z,1037.49
2018-08-03T08:29:58.993Z,1036.64
2018-08-03T08:30:59.026Z,1036.13
2018-08-03T08:31:59.062Z,1036.65
2018-08-03T08:32:59.090Z,1037.65
2018-08-03T08:33:59.123Z,1036.15
2018-08-03T08:34:59.157Z,1035.14
2018-08-03T08:35:59.186Z,1037.71
2018-08-03T08:36:59.329Z,1037.66
2018-08-03T08:37:59.248Z,1025.54
2018-08-03T08:38:59.280Z,1010.32
2018-08-03T08:39:59.311Z,1008.97
2018-08-03T08:40:59.339Z,1008.88
2018-08-03T08:41:59.374Z,1008.89
2018-08-03T08:42:59.411Z,1008.86
2018-08-03T08:43:59.519Z,1008.78
2018-08-03T08:44:59.463Z,1008.80
2018-08-03T08:45:59.499Z,1008.77
2018-08-03T08:46:59.534Z,1008.77
2018-08-03T08:47:59.555Z,1008.79
2018-08-03T08:48:59.586Z,1008.74
2018-08-03T08:49:59.618Z,1008.68
2018-08-03T08:50:59.643Z,1008.70
2018-08-03T08:51:59.670Z,1008.66
2018-08-03T08:52:59.758Z,1008.68
2018-08-03T08:53:59.740Z,1008.63
2018-08-03T08:54:59.760Z,1008.60
2018-08-03T08:55:59.789Z,1008.66
2018-08-03T08:56:59.818Z,1008.61
2018-08-03T08:57:59.843Z,1008.59
2018-08-03T08:58:59.874Z,1008.58
2018-08-03T08:59:59.902Z,1008.58
2018-08-03T09:01:00.008Z,1008.61
2018-08-03T09:01:59.958Z,1008.59
2018-08-03T09:02:59.985Z,1008.58
2018-08-03T09:04:00.019Z,1008.56
2018-08-03T09:05:00.045Z,1008.62
2018-08-03T09:06:00.071Z,1008.62
2018-08-03T09:07:00.104Z,1008.59
2018-08-03T09:08:00.129Z,1008.54
2018-08-03T09:09:00.158Z,1008.50
2018-08-03T09:10:00.182Z,1008.48
2018-08-03T09:11:00.215Z,1008.49
2018-08-03T09:12:00.237Z,1008.47
2018-08-03T09:13:00.280Z,1008.50
2018-08-03T09:14:00.303Z,1008.48
2018-08-03T09:15:00.324Z,1008.46
2018-08-03T09:16:00.355Z,1008.46
2018-08-03T09:17:00.376Z,1008.46
2018-08-03T09:18:00.405Z,1008.47
2018-08-03T09:19:00.431Z,1008.44
2018-08-03T09:20:00.459Z,1008.50
2018-08-03T09:21:00.488Z,1008.52
2018-08-03T09:22:00.533Z,1008.47
2018-08-03T09:23:00.541Z,1008.43
2018-08-03T09:24:00.567Z,1008.41
2018-08-03T09:25:00.596Z,1008.36
2018-08-03T09:26:00.621Z,1008.37
2018-08-03T09:27:00.650Z,1008.30
2018-08-03T09:28:00.676Z,1008.34
2018-08-03T09:29:00.707Z,1008.32
2018-08-03T09:30:00.734Z,1008.29
2018-08-03T09:31:00.787Z,1008.26
2018-08-03T09:32:00.796Z,1008.24
2018-08-03T09:33:00.815Z,1008.24
2018-08-03T09:34:00.851Z,1008.23
2018-08-03T09:35:00.868Z,1008.18
2018-08-03T09:36:00.898Z,1008.15
2018-08-03T09:37:00.927Z,1008.13
2018-08-03T09:38:00.955Z,1008.11
2018-08-03T09:39:00.980Z,1008.12
2018-08-03T09:40:01.004Z,1008.14
2018-08-03T09:41:01.033Z,1008.14
2018-08-03T09:42:01.058Z,1008.08
2018-08-03T09:43:01.150Z,1008.09
2018-08-03T09:44:01.128Z,1008.03
2018-08-03T09:45:01.151Z,1007.99
2018-08-03T09:46:01.168Z,1007.98
2018-08-03T09:47:01.198Z,1008.00
2018-08-03T09:48:01.226Z,1008.01
2018-08-03T09:49:01.251Z,1007.97
2018-08-03T09:50:01.280Z,1007.98
2018-08-03T09:51:01.308Z,1007.97
2018-08-03T09:52:01.332Z,1007.96
2018-08-03T09:53:01.361Z,1007.97
2018-08-03T09:54:01.386Z,1007.93
2018-08-03T09:55:01.413Z,1007.87
2018-08-03T09:56:01.439Z,1007.89
2018-08-03T09:57:01.467Z,1007.87
2018-08-03T09:58:01.494Z,1007.89
2018-08-03T09:59:01.519Z,1007.92
2018-08-03T10:00:01.547Z,1007.90
2018-08-03T10:01:01.571Z,1008.00
2018-08-03T10:02:01.599Z,1007.89
2018-08-03T10:03:01.645Z,1007.85
2018-08-03T10:04:01.650Z,1007.85
2018-08-03T10:05:01.679Z,1007.88
2018-08-03T10:06:01.712Z,1007.90
2018-08-03T10:07:01.733Z,1007.85
2018-08-03T10:08:01.763Z,1007.82
2018-08-03T10:09:01.789Z,1007.83
2018-08-03T10:10:01.815Z,1007.85
2018-08-03T10:11:01.837Z,1007.83
2018-08-03T10:12:01.866Z,1007.81
2018-08-03T10:13:01.896Z,1007.78
2018-08-03T10:14:01.920Z,1007.81
2018-08-03T10:15:01.947Z,1007.82
2018-08-03T10:16:01.974Z,1007.81
2018-08-03T10:17:02.001Z,1007.79
2018-08-03T10:18:02.030Z,1007.77
2018-08-03T10:19:02.055Z,1007.74
2018-08-03T10:20:02.080Z,1007.71
2018-08-03T10:21:02.104Z,1007.68
2018-08-03T10:22:02.131Z,1007.71
2018-08-03T10:23:02.161Z,1007.67
2018-08-03T10:24:02.190Z,1007.70
2018-08-03T10:25:02.214Z,1007.67
2018-08-03T10:26:02.241Z,1007.65
2018-08-03T10:27:02.266Z,1007.68
2018-08-03T10:28:02.297Z,1007.64
2018-08-03T10:29:02.324Z,1007.61
2018-08-03T10:30:02.351Z,1007.61
2018-08-03T10:31:02.378Z,1007.58
2018-08-03T10:32:02.426Z,1007.63
2018-08-03T10:33:02.432Z,1007.63
2018-08-03T10:34:02.460Z,1007.61
2018-08-03T10:35:02.518Z,1007.61
2018-08-03T10:36:02.512Z,1007.57
2018-08-03T10:37:02.561Z,1007.56
2018-08-03T10:38:02.569Z,1007.58
2018-08-03T10:39:02.595Z,1007.54
2018-08-03T10:40:02.623Z,1007.52
2018-08-03T10:41:02.649Z,1007.53
2018-08-03T10:42:02.674Z,1007.55
2018-08-03T10:43:02.735Z,1007.50
2018-08-03T10:44:02.733Z,1007.49
2018-08-03T10:45:02.760Z,1007.48
2018-08-03T10:46:02.786Z,1007.49
2018-08-03T10:47:02.837Z,1007.48
2018-08-03T10:48:02.838Z,1007.45
2018-08-03T10:49:02.868Z,1007.42
2018-08-03T10:50:02.898Z,1007.39
2018-08-03T10:51:02.925Z,1007.39
2018-08-03T10:52:02.947Z,1007.40
2018-08-03T10:53:02.973Z,1007.31
2018-08-03T10:54:03.003Z,1007.33
2018-08-03T10:55:03.033Z,1007.29
2018-08-03T10:56:03.058Z,1007.31
2018-08-03T10:57:03.084Z,1007.26
2018-08-03T10:58:03.109Z,1007.27
2018-08-03T10:59:03.137Z,1007.25
2018-08-03T11:00:03.171Z,1007.26
2018-08-03T11:01:03.192Z,1007.25
2018-08-03T11:02:03.218Z,1007.23
2018-08-03T11:03:03.247Z,1007.24
2018-08-03T11:04:03.274Z,1007.21
2018-08-03T11:05:03.301Z,1007.19
2018-08-03T11:06:03.326Z,1007.20
2018-08-03T11:07:03.353Z,1007.18
2018-08-03T11:08:03.392Z,1007.19
2018-08-03T11:09:03.446Z,1007.16
2018-08-03T11:10:03.436Z,1007.14
2018-08-03T11:11:03.467Z,1007.14
2018-08-03T11:12:03.492Z,1007.13
2018-08-03T11:13:03.519Z,1007.15
2018-08-03T11:14:03.582Z,1007.12
2018-08-03T11:15:03.572Z,1007.09
2018-08-03T11:16:03.598Z,1007.12
2018-08-03T11:17:03.627Z,1007.09
2018-08-03T11:18:03.657Z,1007.13
2018-08-03T11:19:03.679Z,1007.08
2018-08-03T11:20:03.720Z,1007.05
2018-08-03T11:21:03.735Z,1007.06
2018-08-03T11:22:03.763Z,1007.07
2018-08-03T11:23:03.791Z,1007.08
2018-08-03T11:24:03.869Z,1007.05
2018-08-03T11:25:03.843Z,1007.06
2018-08-03T11:26:03.872Z,1007.06
2018-08-03T11:27:03.900Z,1006.98
2018-08-03T11:28:03.925Z,1006.96
2018-08-03T11:29:03.951Z,1006.94
2018-08-03T11:30:03.978Z,1006.95
2018-08-03T11:31:04.008Z,1006.97
2018-08-03T11:32:04.034Z,1006.93
2018-08-03T11:33:04.062Z,1006.96
2018-08-03T11:34:04.091Z,1006.97
2018-08-03T11:35:04.122Z,1006.94
2018-08-03T11:36:04.144Z,1006.94
2018-08-03T11:37:04.175Z,1006.93
2018-08-03T11:38:04.197Z,1006.95
2018-08-03T11:39:04.227Z,1006.94
2018-08-03T11:40:04.258Z,1006.98
2018-08-03T11:41:04.323Z,1007.01
2018-08-03T11:42:04.330Z,1006.93
2018-08-03T11:43:04.339Z,1006.92
2018-08-03T11:44:04.367Z,1006.92
2018-08-03T11:45:04.384Z,1006.93
2018-08-03T11:46:04.413Z,1006.91
2018-08-03T11:47:04.447Z,1006.78
2018-08-03T11:48:04.471Z,1006.89
2018-08-03T11:49:04.503Z,1006.86
2018-08-03T11:50:04.528Z,1006.92
2018-08-03T11:51:04.550Z,1006.91
2018-08-03T11:52:04.582Z,1006.84
2018-08-03T11:53:04.606Z,1006.91
2018-08-03T11:54:04.683Z,1006.89
2018-08-03T11:55:04.659Z,1006.82
2018-08-03T11:56:04.686Z,1006.83
2018-08-03T11:57:04.714Z,1006.86
2018-08-03T11:58:04.742Z,1006.82
2018-08-03T11:59:04.769Z,1006.73
2018-08-03T12:00:04.810Z,1006.71
2018-08-03T12:01:04.823Z,1006.72
2018-08-03T12:02:04.852Z,1006.63
2018-08-03T12:03:04.884Z,1006.69
2018-08-03T12:04:04.904Z,1006.78
2018-08-03T12:05:04.929Z,1006.74
2018-08-03T12:06:04.963Z,1006.72